Alum Bank, Pennsylvania
Current Conditions -  °F | °C
As of 7:54 PM on Sunday 23 Nov 2014 (Local Time) from KJST Reporting Station
Broken Clouds Broken Clouds  
Wind Chill: 42°   Ceiling: 2000
Heat Index: 48°   Visibility: 10mi
Dew Point: 33°   Wind: 16mph
Humidity: 56%   Direction: 140°SE
Pressure: 29.83"   Gusts: 31mph
Location:  40.18°N, 78.61°W
Report Text: KJST 240054Z AUTO 14014G27KT 10SM BKN020 09/01 A2983 RMK AO2 PK WND 15027/0051 SLP107 T00890006
Loading
Personal Weather Stations






























Interactive Weather Map New forecast layout! Learn more

10-Day Weather Forecast

Advertisements
Track Severe Weather on mobile